sensor_id;sensor_type;location;lat;lon;timestamp;P1;durP1;ratioP1;P2;durP2;ratioP2
64029;SDS011;50277;52.064;4.492;2023-08-17T00:00:08;5.50;;;2.35;;
64029;SDS011;50277;52.064;4.492;2023-08-17T00:02:35;6.53;;;2.45;;
64029;SDS011;50277;52.064;4.492;2023-08-17T00:05:00;7.15;;;2.15;;
64029;SDS011;50277;52.064;4.492;2023-08-17T00:07:25;3.35;;;1.92;;
64029;SDS011;50277;52.064;4.492;2023-08-17T00:09:51;5.82;;;2.17;;
64029;SDS011;50277;52.064;4.492;2023-08-17T00:12:16;3.42;;;2.22;;
64029;SDS011;50277;52.064;4.492;2023-08-17T00:14:41;2.88;;;1.83;;
64029;SDS011;50277;52.064;4.492;2023-08-17T00:17:07;4.18;;;2.22;;
64029;SDS011;50277;52.064;4.492;2023-08-17T00:19:32;4.75;;;1.73;;
64029;SDS011;50277;52.064;4.492;2023-08-17T00:28:30;4.68;;;1.73;;
64029;SDS011;50277;52.064;4.492;2023-08-17T00:30:55;3.80;;;1.85;;
64029;SDS011;50277;52.064;4.492;2023-08-17T00:33:20;4.32;;;2.00;;
64029;SDS011;50277;52.064;4.492;2023-08-17T00:35:46;4.53;;;2.00;;
64029;SDS011;50277;52.064;4.492;2023-08-17T00:38:11;2.42;;;1.83;;
64029;SDS011;50277;52.064;4.492;2023-08-17T00:40:37;3.92;;;2.00;;
64029;SDS011;50277;52.064;4.492;2023-08-17T00:43:02;3.90;;;1.88;;
64029;SDS011;50277;52.064;4.492;2023-08-17T00:45:28;4.38;;;1.92;;
64029;SDS011;50277;52.064;4.492;2023-08-17T00:47:55;6.22;;;2.33;;
64029;SDS011;50277;52.064;4.492;2023-08-17T00:50:22;4.80;;;2.05;;
64029;SDS011;50277;52.064;4.492;2023-08-17T00:52:48;2.75;;;1.77;;
64029;SDS011;50277;52.064;4.492;2023-08-17T00:55:13;4.72;;;1.95;;
64029;SDS011;50277;52.064;4.492;2023-08-17T00:57:39;4.45;;;2.08;;
64029;SDS011;50277;52.064;4.492;2023-08-17T01:00:06;3.70;;;2.00;;
64029;SDS011;50277;52.064;4.492;2023-08-17T01:02:32;4.00;;;2.00;;
64029;SDS011;50277;52.064;4.492;2023-08-17T01:04:58;3.63;;;2.00;;
64029;SDS011;50277;52.064;4.492;2023-08-17T01:07:23;5.18;;;2.08;;
64029;SDS011;50277;52.064;4.492;2023-08-17T01:09:49;7.28;;;1.92;;
64029;SDS011;50277;52.064;4.492;2023-08-17T01:12:19;5.97;;;2.58;;
64029;SDS011;50277;52.064;4.492;2023-08-17T01:17:24;6.90;;;2.30;;
64029;SDS011;50277;52.064;4.492;2023-08-17T01:19:52;6.47;;;1.88;;
64029;SDS011;50277;52.064;4.492;2023-08-17T01:22:18;2.47;;;1.73;;
64029;SDS011;50277;52.064;4.492;2023-08-17T01:24:46;3.72;;;1.75;;
64029;SDS011;50277;52.064;4.492;2023-08-17T01:27:11;3.97;;;2.13;;
64029;SDS011;50277;52.064;4.492;2023-08-17T01:29:37;2.63;;;1.85;;
64029;SDS011;50277;52.064;4.492;2023-08-17T01:34:33;8.55;;;1.80;;
64029;SDS011;50277;52.064;4.492;2023-08-17T01:37:01;3.75;;;1.95;;
64029;SDS011;50277;52.064;4.492;2023-08-17T01:39:32;8.52;;;1.90;;
64029;SDS011;50277;52.064;4.492;2023-08-17T01:42:01;3.80;;;1.70;;
64029;SDS011;50277;52.064;4.492;2023-08-17T01:44:27;4.63;;;1.98;;
64029;SDS011;50277;52.064;4.492;2023-08-17T01:46:52;3.47;;;2.17;;
64029;SDS011;50277;52.064;4.492;2023-08-17T01:49:18;3.65;;;2.05;;
64029;SDS011;50277;52.064;4.492;2023-08-17T01:51:43;3.22;;;1.90;;
64029;SDS011;50277;52.064;4.492;2023-08-17T01:54:09;2.00;;;1.90;;
64029;SDS011;50277;52.064;4.492;2023-08-17T01:56:34;2.67;;;1.83;;
64029;SDS011;50277;52.064;4.492;2023-08-17T01:58:59;4.68;;;2.10;;
64029;SDS011;50277;52.064;4.492;2023-08-17T02:01:25;4.40;;;1.90;;
64029;SDS011;50277;52.064;4.492;2023-08-17T02:03:50;5.03;;;2.13;;
64029;SDS011;50277;52.064;4.492;2023-08-17T02:06:16;4.32;;;2.60;;
64029;SDS011;50277;52.064;4.492;2023-08-17T02:08:41;5.28;;;2.05;;
64029;SDS011;50277;52.064;4.492;2023-08-17T02:11:06;3.85;;;1.95;;
64029;SDS011;50277;52.064;4.492;2023-08-17T02:13:32;4.40;;;2.33;;
64029;SDS011;50277;52.064;4.492;2023-08-17T02:15:57;4.07;;;2.20;;
64029;SDS011;50277;52.064;4.492;2023-08-17T02:18:22;3.97;;;2.08;;
64029;SDS011;50277;52.064;4.492;2023-08-17T02:20:48;7.03;;;2.10;;
64029;SDS011;50277;52.064;4.492;2023-08-17T02:23:13;7.80;;;2.30;;
64029;SDS011;50277;52.064;4.492;2023-08-17T02:25:39;3.35;;;2.42;;
64029;SDS011;50277;52.064;4.492;2023-08-17T02:28:04;6.88;;;2.30;;
64029;SDS011;50277;52.064;4.492;2023-08-17T02:30:30;3.58;;;2.03;;
64029;SDS011;50277;52.064;4.492;2023-08-17T02:32:55;7.50;;;2.40;;
64029;SDS011;50277;52.064;4.492;2023-08-17T02:35:20;5.72;;;2.20;;
64029;SDS011;50277;52.064;4.492;2023-08-17T02:37:46;3.65;;;2.10;;
64029;SDS011;50277;52.064;4.492;2023-08-17T02:40:11;3.95;;;2.10;;
64029;SDS011;50277;52.064;4.492;2023-08-17T02:42:36;5.72;;;2.13;;
64029;SDS011;50277;52.064;4.492;2023-08-17T02:45:02;4.68;;;2.08;;
64029;SDS011;50277;52.064;4.492;2023-08-17T02:47:27;6.65;;;2.42;;
64029;SDS011;50277;52.064;4.492;2023-08-17T02:49:53;5.45;;;2.20;;
64029;SDS011;50277;52.064;4.492;2023-08-17T02:52:18;5.70;;;2.38;;
64029;SDS011;50277;52.064;4.492;2023-08-17T02:54:43;7.13;;;2.55;;
64029;SDS011;50277;52.064;4.492;2023-08-17T02:57:09;3.25;;;2.20;;
64029;SDS011;50277;52.064;4.492;2023-08-17T02:59:34;6.38;;;2.50;;
64029;SDS011;50277;52.064;4.492;2023-08-17T03:01:59;8.45;;;3.53;;
64029;SDS011;50277;52.064;4.492;2023-08-17T03:04:25;6.55;;;2.58;;
64029;SDS011;50277;52.064;4.492;2023-08-17T03:06:50;3.63;;;2.30;;
64029;SDS011;50277;52.064;4.492;2023-08-17T03:09:15;6.15;;;2.78;;
64029;SDS011;50277;52.064;4.492;2023-08-17T03:11:41;5.32;;;2.20;;
64029;SDS011;50277;52.064;4.492;2023-08-17T03:14:06;5.15;;;2.35;;
64029;SDS011;50277;52.064;4.492;2023-08-17T03:16:31;5.00;;;2.55;;
64029;SDS011;50277;52.064;4.492;2023-08-17T03:18:57;5.68;;;2.50;;
64029;SDS011;50277;52.064;4.492;2023-08-17T03:21:22;7.60;;;2.72;;
64029;SDS011;50277;52.064;4.492;2023-08-17T03:23:48;3.83;;;2.53;;
64029;SDS011;50277;52.064;4.492;2023-08-17T03:26:13;6.93;;;2.78;;
64029;SDS011;50277;52.064;4.492;2023-08-17T03:28:39;5.15;;;2.50;;
64029;SDS011;50277;52.064;4.492;2023-08-17T03:31:04;6.50;;;2.72;;
64029;SDS011;50277;52.064;4.492;2023-08-17T03:33:31;6.25;;;2.78;;
64029;SDS011;50277;52.064;4.492;2023-08-17T03:35:57;4.82;;;2.40;;
64029;SDS011;50277;52.064;4.492;2023-08-17T03:38:22;4.25;;;2.08;;
64029;SDS011;50277;52.064;4.492;2023-08-17T03:40:48;6.95;;;2.60;;
64029;SDS011;50277;52.064;4.492;2023-08-17T03:43:13;3.20;;;2.22;;
64029;SDS011;50277;52.064;4.492;2023-08-17T03:45:40;3.58;;;2.13;;
64029;SDS011;50277;52.064;4.492;2023-08-17T03:48:06;4.82;;;2.40;;
64029;SDS011;50277;52.064;4.492;2023-08-17T03:50:32;6.57;;;2.65;;
64029;SDS011;50277;52.064;4.492;2023-08-17T03:52:57;5.65;;;2.42;;
64029;SDS011;50277;52.064;4.492;2023-08-17T03:55:22;4.93;;;2.30;;
64029;SDS011;50277;52.064;4.492;2023-08-17T03:57:48;3.00;;;1.77;;
64029;SDS011;50277;52.064;4.492;2023-08-17T04:00:13;4.18;;;2.80;;
64029;SDS011;50277;52.064;4.492;2023-08-17T04:02:38;4.00;;;2.13;;
64029;SDS011;50277;52.064;4.492;2023-08-17T04:05:04;5.25;;;1.90;;
64029;SDS011;50277;52.064;4.492;2023-08-17T04:07:30;4.18;;;2.10;;
64029;SDS011;50277;52.064;4.492;2023-08-17T04:09:55;8.95;;;2.83;;
64029;SDS011;50277;52.064;4.492;2023-08-17T04:12:20;7.32;;;2.17;;
64029;SDS011;50277;52.064;4.492;2023-08-17T04:14:45;5.38;;;2.50;;
64029;SDS011;50277;52.064;4.492;2023-08-17T04:17:11;4.13;;;2.20;;
64029;SDS011;50277;52.064;4.492;2023-08-17T04:19:36;4.65;;;2.13;;
64029;SDS011;50277;52.064;4.492;2023-08-17T04:22:02;5.28;;;2.30;;
64029;SDS011;50277;52.064;4.492;2023-08-17T04:24:27;2.70;;;2.00;;
64029;SDS011;50277;52.064;4.492;2023-08-17T04:26:52;10.57;;;2.40;;
64029;SDS011;50277;52.064;4.492;2023-08-17T04:29:18;3.40;;;2.13;;
64029;SDS011;50277;52.064;4.492;2023-08-17T04:31:43;4.68;;;2.30;;
64029;SDS011;50277;52.064;4.492;2023-08-17T04:34:10;4.55;;;2.72;;
64029;SDS011;50277;52.064;4.492;2023-08-17T04:36:36;6.30;;;2.63;;
64029;SDS011;50277;52.064;4.492;2023-08-17T04:39:01;5.43;;;2.00;;
64029;SDS011;50277;52.064;4.492;2023-08-17T04:41:26;2.92;;;2.00;;
64029;SDS011;50277;52.064;4.492;2023-08-17T04:43:52;3.72;;;2.17;;
64029;SDS011;50277;52.064;4.492;2023-08-17T04:46:17;3.90;;;1.90;;
64029;SDS011;50277;52.064;4.492;2023-08-17T04:48:42;7.97;;;1.95;;
64029;SDS011;50277;52.064;4.492;2023-08-17T04:51:08;6.68;;;3.17;;
64029;SDS011;50277;52.064;4.492;2023-08-17T04:53:33;6.78;;;2.10;;
64029;SDS011;50277;52.064;4.492;2023-08-17T04:55:58;4.75;;;1.85;;
64029;SDS011;50277;52.064;4.492;2023-08-17T04:58:24;3.92;;;2.00;;
64029;SDS011;50277;52.064;4.492;2023-08-17T05:00:49;2.97;;;2.15;;
64029;SDS011;50277;52.064;4.492;2023-08-17T05:03:15;4.85;;;1.80;;
64029;SDS011;50277;52.064;4.492;2023-08-17T05:05:41;5.40;;;1.90;;
64029;SDS011;50277;52.064;4.492;2023-08-17T05:08:07;4.38;;;2.00;;
64029;SDS011;50277;52.064;4.492;2023-08-17T05:10:32;4.10;;;2.00;;
64029;SDS011;50277;52.064;4.492;2023-08-17T05:12:57;3.10;;;1.65;;
64029;SDS011;50277;52.064;4.492;2023-08-17T05:15:23;3.03;;;1.70;;
64029;SDS011;50277;52.064;4.492;2023-08-17T05:17:48;5.78;;;1.98;;
64029;SDS011;50277;52.064;4.492;2023-08-17T05:20:13;3.40;;;1.70;;
64029;SDS011;50277;52.064;4.492;2023-08-17T05:22:39;5.80;;;2.28;;
64029;SDS011;50277;52.064;4.492;2023-08-17T05:25:05;4.50;;;1.90;;
64029;SDS011;50277;52.064;4.492;2023-08-17T05:27:30;7.00;;;2.13;;
64029;SDS011;50277;52.064;4.492;2023-08-17T05:29:56;2.40;;;1.75;;
64029;SDS011;50277;52.064;4.492;2023-08-17T05:32:21;6.75;;;2.10;;
64029;SDS011;50277;52.064;4.492;2023-08-17T05:34:47;6.60;;;2.10;;
64029;SDS011;50277;52.064;4.492;2023-08-17T05:37:12;6.03;;;2.20;;
64029;SDS011;50277;52.064;4.492;2023-08-17T05:39:39;4.25;;;2.55;;
64029;SDS011;50277;52.064;4.492;2023-08-17T05:42:05;3.00;;;1.83;;
64029;SDS011;50277;52.064;4.492;2023-08-17T05:44:31;3.65;;;1.73;;
64029;SDS011;50277;52.064;4.492;2023-08-17T05:46:56;3.80;;;1.92;;
64029;SDS011;50277;52.064;4.492;2023-08-17T05:49:22;2.50;;;1.75;;
64029;SDS011;50277;52.064;4.492;2023-08-17T05:51:47;3.25;;;1.85;;
64029;SDS011;50277;52.064;4.492;2023-08-17T05:54:12;5.55;;;2.38;;
64029;SDS011;50277;52.064;4.492;2023-08-17T05:56:38;7.35;;;2.55;;
64029;SDS011;50277;52.064;4.492;2023-08-17T05:59:09;4.78;;;2.13;;
64029;SDS011;50277;52.064;4.492;2023-08-17T06:01:35;3.65;;;2.22;;
64029;SDS011;50277;52.064;4.492;2023-08-17T06:04:01;6.10;;;2.25;;
64029;SDS011;50277;52.064;4.492;2023-08-17T06:06:26;6.38;;;2.10;;
64029;SDS011;50277;52.064;4.492;2023-08-17T06:08:51;7.22;;;2.30;;
64029;SDS011;50277;52.064;4.492;2023-08-17T06:11:17;6.30;;;2.50;;
64029;SDS011;50277;52.064;4.492;2023-08-17T06:13:42;5.85;;;2.30;;
64029;SDS011;50277;52.064;4.492;2023-08-17T06:16:07;4.80;;;2.10;;
64029;SDS011;50277;52.064;4.492;2023-08-17T06:18:33;7.65;;;2.15;;
64029;SDS011;50277;52.064;4.492;2023-08-17T06:20:59;2.55;;;2.00;;
64029;SDS011;50277;52.064;4.492;2023-08-17T06:23:24;5.03;;;2.08;;
64029;SDS011;50277;52.064;4.492;2023-08-17T06:25:50;5.40;;;2.45;;
64029;SDS011;50277;52.064;4.492;2023-08-17T06:28:15;5.75;;;1.85;;
64029;SDS011;50277;52.064;4.492;2023-08-17T06:30:40;7.47;;;2.33;;
64029;SDS011;50277;52.064;4.492;2023-08-17T06:33:06;5.18;;;2.15;;
64029;SDS011;50277;52.064;4.492;2023-08-17T06:35:31;5.45;;;2.20;;
64029;SDS011;50277;52.064;4.492;2023-08-17T06:37:56;4.80;;;2.28;;
64029;SDS011;50277;52.064;4.492;2023-08-17T06:40:23;3.53;;;2.28;;
64029;SDS011;50277;52.064;4.492;2023-08-17T06:42:50;4.93;;;2.38;;
64029;SDS011;50277;52.064;4.492;2023-08-17T06:45:17;3.67;;;2.00;;
64029;SDS011;50277;52.064;4.492;2023-08-17T06:47:43;4.00;;;2.20;;
64029;SDS011;50277;52.064;4.492;2023-08-17T06:50:10;4.68;;;2.15;;
64029;SDS011;50277;52.064;4.492;2023-08-17T06:52:35;6.35;;;2.15;;
64029;SDS011;50277;52.064;4.492;2023-08-17T06:55:01;3.42;;;2.15;;
64029;SDS011;50277;52.064;4.492;2023-08-17T06:57:26;6.20;;;2.20;;
64029;SDS011;50277;52.064;4.492;2023-08-17T06:59:52;5.50;;;2.17;;
64029;SDS011;50277;52.064;4.492;2023-08-17T07:02:17;5.05;;;2.47;;
64029;SDS011;50277;52.064;4.492;2023-08-17T07:04:42;3.97;;;2.03;;
64029;SDS011;50277;52.064;4.492;2023-08-17T07:07:08;7.38;;;2.17;;
64029;SDS011;50277;52.064;4.492;2023-08-17T07:09:33;7.50;;;2.50;;
64029;SDS011;50277;52.064;4.492;2023-08-17T07:11:59;5.85;;;2.70;;
64029;SDS011;50277;52.064;4.492;2023-08-17T07:14:24;6.25;;;2.55;;
64029;SDS011;50277;52.064;4.492;2023-08-17T07:16:50;4.18;;;2.47;;
64029;SDS011;50277;52.064;4.492;2023-08-17T07:19:15;4.10;;;2.55;;
64029;SDS011;50277;52.064;4.492;2023-08-17T07:21:40;7.72;;;2.55;;
64029;SDS011;50277;52.064;4.492;2023-08-17T07:24:12;4.00;;;2.10;;
64029;SDS011;50277;52.064;4.492;2023-08-17T07:26:39;4.47;;;2.33;;
64029;SDS011;50277;52.064;4.492;2023-08-17T07:29:04;8.15;;;2.30;;
64029;SDS011;50277;52.064;4.492;2023-08-17T07:31:30;4.70;;;2.20;;
64029;SDS011;50277;52.064;4.492;2023-08-17T07:33:56;5.30;;;2.30;;
64029;SDS011;50277;52.064;4.492;2023-08-17T07:36:21;5.97;;;2.00;;
64029;SDS011;50277;52.064;4.492;2023-08-17T07:38:46;5.85;;;2.28;;
64029;SDS011;50277;52.064;4.492;2023-08-17T07:41:12;10.40;;;2.53;;
64029;SDS011;50277;52.064;4.492;2023-08-17T07:43:37;4.25;;;2.17;;
64029;SDS011;50277;52.064;4.492;2023-08-17T07:46:02;5.75;;;2.08;;
64029;SDS011;50277;52.064;4.492;2023-08-17T07:48:28;5.20;;;2.25;;
64029;SDS011;50277;52.064;4.492;2023-08-17T07:50:58;3.40;;;1.65;;
64029;SDS011;50277;52.064;4.492;2023-08-17T07:53:24;6.15;;;1.90;;
64029;SDS011;50277;52.064;4.492;2023-08-17T07:55:49;4.90;;;1.70;;
64029;SDS011;50277;52.064;4.492;2023-08-17T07:58:14;11.07;;;1.75;;
64029;SDS011;50277;52.064;4.492;2023-08-17T08:00:39;2.63;;;1.60;;
64029;SDS011;50277;52.064;4.492;2023-08-17T08:03:05;3.92;;;1.85;;
64029;SDS011;50277;52.064;4.492;2023-08-17T08:05:31;6.32;;;1.65;;
64029;SDS011;50277;52.064;4.492;2023-08-17T08:07:56;3.55;;;1.55;;
64029;SDS011;50277;52.064;4.492;2023-08-17T08:10:21;4.60;;;1.80;;
64029;SDS011;50277;52.064;4.492;2023-08-17T08:12:47;5.43;;;1.92;;
64029;SDS011;50277;52.064;4.492;2023-08-17T08:15:12;3.83;;;1.77;;
64029;SDS011;50277;52.064;4.492;2023-08-17T08:17:37;4.05;;;1.70;;
64029;SDS011;50277;52.064;4.492;2023-08-17T08:20:03;7.00;;;2.00;;
64029;SDS011;50277;52.064;4.492;2023-08-17T08:22:29;5.25;;;2.00;;
64029;SDS011;50277;52.064;4.492;2023-08-17T08:24:54;2.40;;;1.50;;
64029;SDS011;50277;52.064;4.492;2023-08-17T08:27:19;11.88;;;2.13;;
64029;SDS011;50277;52.064;4.492;2023-08-17T08:29:45;2.92;;;1.35;;
64029;SDS011;50277;52.064;4.492;2023-08-17T08:32:10;5.78;;;1.85;;
64029;SDS011;50277;52.064;4.492;2023-08-17T08:34:36;5.07;;;1.88;;
64029;SDS011;50277;52.064;4.492;2023-08-17T08:37:01;4.30;;;1.85;;
64029;SDS011;50277;52.064;4.492;2023-08-17T08:39:26;5.15;;;1.85;;
64029;SDS011;50277;52.064;4.492;2023-08-17T08:41:52;3.90;;;1.50;;
64029;SDS011;50277;52.064;4.492;2023-08-17T08:44:18;5.32;;;1.90;;
64029;SDS011;50277;52.064;4.492;2023-08-17T08:46:44;4.82;;;1.88;;
64029;SDS011;50277;52.064;4.492;2023-08-17T08:49:10;2.95;;;1.73;;
64029;SDS011;50277;52.064;4.492;2023-08-17T08:51:37;2.40;;;1.60;;
64029;SDS011;50277;52.064;4.492;2023-08-17T08:54:07;4.40;;;2.05;;
64029;SDS011;50277;52.064;4.492;2023-08-17T08:56:38;4.45;;;1.98;;
64029;SDS011;50277;52.064;4.492;2023-08-17T08:59:06;3.53;;;1.70;;
64029;SDS011;50277;52.064;4.492;2023-08-17T09:01:32;3.78;;;1.98;;
64029;SDS011;50277;52.064;4.492;2023-08-17T09:04:01;2.53;;;1.75;;
64029;SDS011;50277;52.064;4.492;2023-08-17T09:06:27;4.32;;;2.30;;
64029;SDS011;50277;52.064;4.492;2023-08-17T09:08:54;3.60;;;1.83;;
64029;SDS011;50277;52.064;4.492;2023-08-17T09:11:20;2.80;;;1.98;;
64029;SDS011;50277;52.064;4.492;2023-08-17T09:13:45;2.88;;;1.73;;
64029;SDS011;50277;52.064;4.492;2023-08-17T09:16:10;4.65;;;1.67;;
64029;SDS011;50277;52.064;4.492;2023-08-17T09:18:36;5.72;;;2.47;;
64029;SDS011;50277;52.064;4.492;2023-08-17T09:21:01;4.85;;;2.40;;
64029;SDS011;50277;52.064;4.492;2023-08-17T09:23:27;3.22;;;2.00;;
64029;SDS011;50277;52.064;4.492;2023-08-17T09:25:52;7.10;;;2.13;;
64029;SDS011;50277;52.064;4.492;2023-08-17T09:28:22;5.57;;;2.10;;
64029;SDS011;50277;52.064;4.492;2023-08-17T09:30:58;3.95;;;2.15;;
64029;SDS011;50277;52.064;4.492;2023-08-17T09:33:25;4.47;;;2.08;;
64029;SDS011;50277;52.064;4.492;2023-08-17T09:35:52;4.45;;;2.15;;
64029;SDS011;50277;52.064;4.492;2023-08-17T09:38:18;3.90;;;1.58;;
64029;SDS011;50277;52.064;4.492;2023-08-17T09:40:44;3.08;;;1.80;;
64029;SDS011;50277;52.064;4.492;2023-08-17T09:43:10;3.20;;;1.98;;
64029;SDS011;50277;52.064;4.492;2023-08-17T09:45:39;2.92;;;1.80;;
64029;SDS011;50277;52.064;4.492;2023-08-17T09:48:05;4.95;;;1.90;;
64029;SDS011;50277;52.064;4.492;2023-08-17T09:50:32;2.80;;;1.75;;
64029;SDS011;50277;52.064;4.492;2023-08-17T09:52:58;3.88;;;1.95;;
64029;SDS011;50277;52.064;4.492;2023-08-17T09:55:23;6.68;;;1.98;;
64029;SDS011;50277;52.064;4.492;2023-08-17T09:57:49;7.90;;;2.03;;
64029;SDS011;50277;52.064;4.492;2023-08-17T10:00:15;3.97;;;1.90;;
64029;SDS011;50277;52.064;4.492;2023-08-17T10:02:42;5.10;;;2.28;;
64029;SDS011;50277;52.064;4.492;2023-08-17T10:05:10;5.20;;;1.90;;
64029;SDS011;50277;52.064;4.492;2023-08-17T10:07:37;5.88;;;2.40;;
64029;SDS011;50277;52.064;4.492;2023-08-17T10:10:04;3.97;;;2.40;;
64029;SDS011;50277;52.064;4.492;2023-08-17T10:12:37;4.25;;;2.10;;
64029;SDS011;50277;52.064;4.492;2023-08-17T10:15:03;7.38;;;2.20;;
64029;SDS011;50277;52.064;4.492;2023-08-17T10:17:35;3.05;;;1.73;;
64029;SDS011;50277;52.064;4.492;2023-08-17T10:20:05;6.20;;;2.17;;
64029;SDS011;50277;52.064;4.492;2023-08-17T10:22:32;3.63;;;1.90;;
64029;SDS011;50277;52.064;4.492;2023-08-17T10:25:00;4.47;;;2.10;;
64029;SDS011;50277;52.064;4.492;2023-08-17T10:27:26;4.47;;;1.92;;
64029;SDS011;50277;52.064;4.492;2023-08-17T10:29:52;7.90;;;2.28;;
64029;SDS011;50277;52.064;4.492;2023-08-17T10:32:17;3.78;;;1.90;;
64029;SDS011;50277;52.064;4.492;2023-08-17T10:34:43;6.03;;;2.50;;
64029;SDS011;50277;52.064;4.492;2023-08-17T10:37:09;5.07;;;2.63;;
64029;SDS011;50277;52.064;4.492;2023-08-17T10:39:34;7.68;;;2.25;;
64029;SDS011;50277;52.064;4.492;2023-08-17T10:42:02;4.78;;;2.53;;
64029;SDS011;50277;52.064;4.492;2023-08-17T10:50:36;6.03;;;2.30;;
64029;SDS011;50277;52.064;4.492;2023-08-17T10:52:47;3.05;;;2.63;;
64029;SDS011;50277;52.064;4.492;2023-08-17T10:55:14;5.85;;;2.50;;
64029;SDS011;50277;52.064;4.492;2023-08-17T10:57:43;5.47;;;2.60;;
64029;SDS011;50277;52.064;4.492;2023-08-17T11:00:18;4.50;;;3.08;;
64029;SDS011;50277;52.064;4.492;2023-08-17T11:02:58;7.93;;;2.92;;
64029;SDS011;50277;52.064;4.492;2023-08-17T11:05:34;3.85;;;2.50;;
64029;SDS011;50277;52.064;4.492;2023-08-17T11:08:03;5.45;;;2.90;;
64029;SDS011;50277;52.064;4.492;2023-08-17T11:10:30;13.85;;;2.85;;
64029;SDS011;50277;52.064;4.492;2023-08-17T11:12:56;6.28;;;2.30;;
64029;SDS011;50277;52.064;4.492;2023-08-17T11:15:45;3.33;;;2.20;;
64029;SDS011;50277;52.064;4.492;2023-08-17T11:18:13;5.80;;;2.72;;
64029;SDS011;50277;52.064;4.492;2023-08-17T11:20:39;5.00;;;2.13;;
64029;SDS011;50277;52.064;4.492;2023-08-17T11:23:06;5.35;;;2.70;;
64029;SDS011;50277;52.064;4.492;2023-08-17T11:25:32;7.78;;;2.80;;
64029;SDS011;50277;52.064;4.492;2023-08-17T11:27:58;6.35;;;2.35;;
64029;SDS011;50277;52.064;4.492;2023-08-17T11:30:24;3.80;;;2.22;;
64029;SDS011;50277;52.064;4.492;2023-08-17T11:32:50;3.78;;;2.50;;
64029;SDS011;50277;52.064;4.492;2023-08-17T11:35:16;7.70;;;2.95;;
64029;SDS011;50277;52.064;4.492;2023-08-17T11:37:42;8.02;;;3.03;;
64029;SDS011;50277;52.064;4.492;2023-08-17T11:40:09;8.75;;;3.10;;
64029;SDS011;50277;52.064;4.492;2023-08-17T11:42:38;4.70;;;2.63;;
64029;SDS011;50277;52.064;4.492;2023-08-17T11:45:04;7.65;;;2.60;;
64029;SDS011;50277;52.064;4.492;2023-08-17T11:47:30;10.20;;;2.90;;
64029;SDS011;50277;52.064;4.492;2023-08-17T11:50:00;5.82;;;2.42;;
64029;SDS011;50277;52.064;4.492;2023-08-17T11:52:26;9.55;;;2.80;;
64029;SDS011;50277;52.064;4.492;2023-08-17T11:54:56;4.85;;;2.55;;
64029;SDS011;50277;52.064;4.492;2023-08-17T11:57:21;5.85;;;2.65;;
64029;SDS011;50277;52.064;4.492;2023-08-17T11:59:46;4.75;;;2.25;;
64029;SDS011;50277;52.064;4.492;2023-08-17T12:02:13;7.85;;;3.38;;
64029;SDS011;50277;52.064;4.492;2023-08-17T12:04:38;4.43;;;2.60;;
64029;SDS011;50277;52.064;4.492;2023-08-17T12:07:04;5.35;;;2.45;;
64029;SDS011;50277;52.064;4.492;2023-08-17T12:09:31;7.78;;;2.97;;
64029;SDS011;50277;52.064;4.492;2023-08-17T12:12:00;3.30;;;2.00;;
64029;SDS011;50277;52.064;4.492;2023-08-17T12:14:27;4.78;;;2.15;;
64029;SDS011;50277;52.064;4.492;2023-08-17T12:16:52;6.45;;;2.58;;
64029;SDS011;50277;52.064;4.492;2023-08-17T12:19:21;2.47;;;1.98;;
64029;SDS011;50277;52.064;4.492;2023-08-17T12:21:49;4.82;;;2.60;;
64029;SDS011;50277;52.064;4.492;2023-08-17T12:24:15;4.30;;;2.50;;
64029;SDS011;50277;52.064;4.492;2023-08-17T12:26:44;8.82;;;2.83;;
64029;SDS011;50277;52.064;4.492;2023-08-17T12:29:09;9.77;;;2.80;;
64029;SDS011;50277;52.064;4.492;2023-08-17T12:31:35;4.60;;;2.45;;
64029;SDS011;50277;52.064;4.492;2023-08-17T12:34:01;5.63;;;2.92;;
64029;SDS011;50277;52.064;4.492;2023-08-17T12:36:26;3.78;;;2.35;;
64029;SDS011;50277;52.064;4.492;2023-08-17T12:38:51;5.47;;;3.03;;
64029;SDS011;50277;52.064;4.492;2023-08-17T12:41:17;11.15;;;2.63;;
64029;SDS011;50277;52.064;4.492;2023-08-17T12:43:42;5.03;;;2.63;;
64029;SDS011;50277;52.064;4.492;2023-08-17T12:46:08;2.70;;;2.10;;
64029;SDS011;50277;52.064;4.492;2023-08-17T12:48:33;9.52;;;2.72;;
64029;SDS011;50277;52.064;4.492;2023-08-17T12:50:58;6.97;;;2.75;;
64029;SDS011;50277;52.064;4.492;2023-08-17T12:53:24;6.18;;;2.63;;
64029;SDS011;50277;52.064;4.492;2023-08-17T12:55:49;4.53;;;2.75;;
64029;SDS011;50277;52.064;4.492;2023-08-17T12:58:14;4.40;;;2.67;;
64029;SDS011;50277;52.064;4.492;2023-08-17T13:00:40;6.22;;;2.90;;
64029;SDS011;50277;52.064;4.492;2023-08-17T13:03:05;6.25;;;2.28;;
64029;SDS011;50277;52.064;4.492;2023-08-17T13:05:30;5.13;;;2.70;;
64029;SDS011;50277;52.064;4.492;2023-08-17T13:07:56;6.20;;;2.40;;
64029;SDS011;50277;52.064;4.492;2023-08-17T13:10:21;4.13;;;2.58;;
64029;SDS011;50277;52.064;4.492;2023-08-17T13:12:47;3.88;;;2.15;;
64029;SDS011;50277;52.064;4.492;2023-08-17T13:15:12;5.45;;;2.63;;
64029;SDS011;50277;52.064;4.492;2023-08-17T13:17:38;6.43;;;2.38;;
64029;SDS011;50277;52.064;4.492;2023-08-17T13:20:03;4.50;;;2.40;;
64029;SDS011;50277;52.064;4.492;2023-08-17T13:22:30;5.27;;;2.70;;
64029;SDS011;50277;52.064;4.492;2023-08-17T13:24:56;6.93;;;2.80;;
64029;SDS011;50277;52.064;4.492;2023-08-17T13:27:21;5.15;;;3.03;;
64029;SDS011;50277;52.064;4.492;2023-08-17T13:29:47;5.40;;;2.80;;
64029;SDS011;50277;52.064;4.492;2023-08-17T13:32:12;4.28;;;2.50;;
64029;SDS011;50277;52.064;4.492;2023-08-17T13:34:37;4.13;;;2.63;;
64029;SDS011;50277;52.064;4.492;2023-08-17T13:37:03;4.28;;;2.85;;
64029;SDS011;50277;52.064;4.492;2023-08-17T13:39:28;4.93;;;2.65;;
64029;SDS011;50277;52.064;4.492;2023-08-17T13:41:53;4.85;;;2.80;;
64029;SDS011;50277;52.064;4.492;2023-08-17T13:44:19;4.90;;;3.20;;
64029;SDS011;50277;52.064;4.492;2023-08-17T13:46:44;5.32;;;2.80;;
64029;SDS011;50277;52.064;4.492;2023-08-17T13:49:09;9.70;;;3.53;;
64029;SDS011;50277;52.064;4.492;2023-08-17T13:51:34;6.60;;;2.83;;
64029;SDS011;50277;52.064;4.492;2023-08-17T13:54:00;6.05;;;2.97;;
64029;SDS011;50277;52.064;4.492;2023-08-17T13:56:25;5.10;;;2.92;;
64029;SDS011;50277;52.064;4.492;2023-08-17T13:58:51;5.45;;;2.63;;
64029;SDS011;50277;52.064;4.492;2023-08-17T14:01:16;6.20;;;3.47;;
64029;SDS011;50277;52.064;4.492;2023-08-17T14:03:42;9.10;;;2.90;;
64029;SDS011;50277;52.064;4.492;2023-08-17T14:06:07;8.15;;;3.35;;
64029;SDS011;50277;52.064;4.492;2023-08-17T14:08:33;4.97;;;2.58;;
64029;SDS011;50277;52.064;4.492;2023-08-17T14:10:58;4.05;;;2.83;;
64029;SDS011;50277;52.064;4.492;2023-08-17T14:13:25;2.83;;;2.20;;
64029;SDS011;50277;52.064;4.492;2023-08-17T14:15:50;9.13;;;2.75;;
64029;SDS011;50277;52.064;4.492;2023-08-17T14:18:15;3.55;;;2.50;;
64029;SDS011;50277;52.064;4.492;2023-08-17T14:20:41;4.43;;;2.60;;
64029;SDS011;50277;52.064;4.492;2023-08-17T14:23:06;4.05;;;2.47;;
64029;SDS011;50277;52.064;4.492;2023-08-17T14:25:31;2.45;;;2.25;;
64029;SDS011;50277;52.064;4.492;2023-08-17T14:27:57;6.18;;;3.45;;
64029;SDS011;50277;52.064;4.492;2023-08-17T14:30:23;6.25;;;3.20;;
64029;SDS011;50277;52.064;4.492;2023-08-17T14:32:49;6.57;;;3.15;;
64029;SDS011;50277;52.064;4.492;2023-08-17T14:35:15;9.48;;;2.67;;
64029;SDS011;50277;52.064;4.492;2023-08-17T14:37:40;6.03;;;3.05;;
64029;SDS011;50277;52.064;4.492;2023-08-17T14:40:06;5.68;;;2.97;;
64029;SDS011;50277;52.064;4.492;2023-08-17T14:42:31;6.18;;;3.28;;
64029;SDS011;50277;52.064;4.492;2023-08-17T14:44:57;5.22;;;3.63;;
64029;SDS011;50277;52.064;4.492;2023-08-17T14:47:22;3.50;;;2.30;;
64029;SDS011;50277;52.064;4.492;2023-08-17T14:49:47;5.13;;;3.15;;
64029;SDS011;50277;52.064;4.492;2023-08-17T14:52:13;6.10;;;3.10;;
64029;SDS011;50277;52.064;4.492;2023-08-17T14:54:38;9.75;;;3.50;;
64029;SDS011;50277;52.064;4.492;2023-08-17T14:57:04;6.82;;;3.00;;